チューリッヒ の空港の天気 - METARとTAF

チューリヒ国際空港 ( LSZH / ZRH ) - スイス チューリッヒ
飛行場実況気象(Metar)
観測時間10/22 13:50 CEST (10/22 11:50 UTC)
風向・風速不定 1m/s
視程10km以上
天気現象
なし
気温17℃
湿度59%
気圧1018hPa
METARLSZH 221150Z VRB02KT CAVOK 17/09 Q1018 NOSIG
過去の天気等 Google飛行場航空写真 Wunderground天気予報

過去48時間のMETAR

飛行場予報(TAF)
発表時間: 10/22 13:25 CEST (10/22 11:25 UTC)
予報対象時間: 22日14時 CEST ~ 23日20時 CEST
風向・風速不定 2m/s
視程10km以上
なし
22日17時 CEST ~ 22日20時 CEST に徐々に
視程10km以上
全天の8割程度の雲 雲底高度 2130m
22日18時 CEST ~ 22日22時 CEST に 確率 30% で一時的に
天気現象
22日22時 CEST ~ 23日20時 CEST に一時的に
天気現象
23日2時 CEST ~ 23日9時 CEST に 確率 30% で一時的に
視程4000m
全天の4割程度の雲 雲底高度 430m
TAF LSZH 221125Z 2212/2318 VRB03KT CAVOK TX17/2214Z TN10/2304Z TX14/2313Z
BECMG 2215/2218 9999 BKN070
PROB30 TEMPO 2216/2220 RA
TEMPO 2220/2318 RA
PROB30 TEMPO 2300/2307 4000 SCT014